createdAt,value
2018-09-25T00:01:56.453Z,14.07
2018-09-25T00:04:30.765Z,14.05
2018-09-25T00:07:04.733Z,14.02
2018-09-25T00:09:38.607Z,13.95
2018-09-25T00:12:13.004Z,13.88
2018-09-25T00:14:47.032Z,13.92
2018-09-25T00:17:20.913Z,13.94
2018-09-25T00:19:54.804Z,13.67
2018-09-25T00:22:30.705Z,13.75
2018-09-25T00:25:04.696Z,13.75
2018-09-25T00:27:39.364Z,13.80
2018-09-25T00:30:13.927Z,13.83
2018-09-25T00:32:48.854Z,13.78
2018-09-25T00:35:23.298Z,13.67
2018-09-25T00:37:58.001Z,13.59
2018-09-25T00:40:32.500Z,13.56
2018-09-25T00:43:06.621Z,13.49
2018-09-25T00:45:41.291Z,13.48
2018-09-25T00:48:15.725Z,13.43
2018-09-25T00:50:50.479Z,13.44
2018-09-25T00:53:24.749Z,13.45
2018-09-25T00:55:59.444Z,13.50
2018-09-25T00:58:33.635Z,13.43
2018-09-25T01:01:07.900Z,13.32
2018-09-25T01:03:41.894Z,13.37
2018-09-25T01:06:15.923Z,13.40
2018-09-25T01:08:50.040Z,13.43
2018-09-25T01:11:24.100Z,13.40
2018-09-25T01:13:59.295Z,13.40
2018-09-25T01:16:33.401Z,13.32
2018-09-25T01:19:07.307Z,13.25
2018-09-25T01:21:41.217Z,13.29
2018-09-25T01:24:15.569Z,13.33
2018-09-25T01:26:49.506Z,13.36
2018-09-25T01:29:23.370Z,13.36
2018-09-25T01:31:57.676Z,13.32
2018-09-25T01:34:31.531Z,13.20
2018-09-25T01:37:05.373Z,13.27
2018-09-25T01:39:39.540Z,13.24
2018-09-25T01:42:13.341Z,13.25
2018-09-25T01:44:47.492Z,13.24
2018-09-25T01:47:21.351Z,13.22
2018-09-25T01:49:55.313Z,13.03
2018-09-25T01:52:29.195Z,13.07
2018-09-25T01:55:03.393Z,13.15
2018-09-25T01:57:37.371Z,13.10
2018-09-25T02:00:12.588Z,13.08
2018-09-25T02:02:46.613Z,13.10
2018-09-25T02:05:20.865Z,13.09
2018-09-25T02:07:54.738Z,13.12
2018-09-25T02:10:28.852Z,12.80
2018-09-25T02:13:02.725Z,12.69
2018-09-25T02:15:36.626Z,12.61
2018-09-25T02:18:11.570Z,12.65
2018-09-25T02:20:45.789Z,12.70
2018-09-25T02:23:19.652Z,12.78
2018-09-25T02:25:53.484Z,12.82
2018-09-25T02:28:27.650Z,12.85
2018-09-25T02:31:01.515Z,12.73
2018-09-25T02:33:35.538Z,12.73
2018-09-25T02:36:11.730Z,12.80
2018-09-25T02:38:45.622Z,12.82
2018-09-25T02:41:19.722Z,12.83
2018-09-25T02:43:53.551Z,12.81
2018-09-25T02:46:27.638Z,12.77
2018-09-25T02:49:01.484Z,12.57
2018-09-25T02:51:35.747Z,12.47
2018-09-25T02:54:10.344Z,12.41
2018-09-25T02:56:44.330Z,12.50
2018-09-25T02:59:18.197Z,12.54
2018-09-25T03:01:52.381Z,12.41
2018-09-25T03:04:26.278Z,12.29
2018-09-25T03:07:00.382Z,12.26
2018-09-25T03:09:34.311Z,12.24
2018-09-25T03:12:08.193Z,12.34
2018-09-25T03:14:42.335Z,12.34
2018-09-25T03:17:16.211Z,12.37
2018-09-25T03:19:50.116Z,12.38
2018-09-25T03:22:24.298Z,12.40
2018-09-25T03:24:58.116Z,12.25
2018-09-25T03:27:32.314Z,12.13
2018-09-25T03:30:06.171Z,12.15
2018-09-25T03:32:40.527Z,12.22
2018-09-25T03:35:14.425Z,12.22
2018-09-25T03:37:48.314Z,12.23
2018-09-25T03:40:22.309Z,12.25
2018-09-25T03:42:56.483Z,12.27
2018-09-25T03:45:30.424Z,12.17
2018-09-25T03:48:04.342Z,12.22
2018-09-25T03:50:38.211Z,12.25
2018-09-25T03:53:12.509Z,12.04
2018-09-25T03:55:46.377Z,12.10
2018-09-25T03:58:20.501Z,11.97
2018-09-25T04:00:54.397Z,11.79
2018-09-25T04:03:28.271Z,11.80
2018-09-25T04:06:02.895Z,11.86
2018-09-25T04:08:36.912Z,11.84
2018-09-25T04:11:11.200Z,11.77
2018-09-25T04:13:45.208Z,11.84
2018-09-25T04:16:19.039Z,11.90
2018-09-25T04:18:53.251Z,11.87
2018-09-25T04:21:27.277Z,11.93
2018-09-25T04:24:01.298Z,11.86
2018-09-25T04:26:35.338Z,11.90
2018-09-25T04:29:09.630Z,11.97
2018-09-25T04:31:43.513Z,11.88
2018-09-25T04:34:17.689Z,11.90
2018-09-25T04:36:51.485Z,11.90
2018-09-25T04:39:25.354Z,11.88
2018-09-25T04:41:59.273Z,11.74
2018-09-25T04:44:33.457Z,11.71
2018-09-25T04:47:07.301Z,11.69
2018-09-25T04:49:41.465Z,11.70
2018-09-25T04:52:15.353Z,11.67
2018-09-25T04:54:49.540Z,11.72
2018-09-25T04:57:23.390Z,11.71
2018-09-25T04:59:57.574Z,11.70
2018-09-25T05:02:31.394Z,11.70
2018-09-25T05:05:05.589Z,11.62
2018-09-25T05:07:39.762Z,11.67
2018-09-25T05:10:13.799Z,11.63
2018-09-25T05:12:48.062Z,11.68
2018-09-25T05:15:22.118Z,11.71
2018-09-25T05:17:56.160Z,11.72
2018-09-25T05:20:30.350Z,11.76
2018-09-25T05:23:04.218Z,11.76
2018-09-25T05:26:40.769Z,11.82
2018-09-25T05:29:14.918Z,11.79
2018-09-25T05:32:02.460Z,11.76
2018-09-25T05:34:36.644Z,11.63
2018-09-25T05:37:11.065Z,11.45
2018-09-25T05:39:44.928Z,11.28
2018-09-25T05:42:19.199Z,11.41
2018-09-25T05:44:53.254Z,11.46
2018-09-25T05:47:28.504Z,11.65
2018-09-25T05:50:03.287Z,11.45
2018-09-25T05:52:37.409Z,11.51
2018-09-25T05:55:11.852Z,11.51
2018-09-25T05:57:45.746Z,11.40
2018-09-25T06:00:20.153Z,11.34
2018-09-25T06:02:54.149Z,11.54
2018-09-25T06:05:28.406Z,11.54
2018-09-25T06:08:04.433Z,11.44
2018-09-25T06:10:38.786Z,11.67
2018-09-25T06:13:12.869Z,11.77
2018-09-25T06:15:46.879Z,11.92
2018-09-25T06:18:21.025Z,12.01
2018-09-25T06:20:55.128Z,12.00
2018-09-25T06:23:29.008Z,12.10
2018-09-25T06:26:03.144Z,12.24
2018-09-25T06:28:37.120Z,12.26
2018-09-25T06:31:11.378Z,12.35
2018-09-25T06:33:45.293Z,12.39
2018-09-25T06:36:19.448Z,12.41
2018-09-25T06:38:53.376Z,12.37
2018-09-25T06:41:27.521Z,12.51
2018-09-25T06:44:02.555Z,12.46
2018-09-25T06:46:36.915Z,12.53
2018-09-25T06:49:10.782Z,12.62
2018-09-25T06:51:45.073Z,12.75
2018-09-25T06:54:19.110Z,12.78
2018-09-25T06:56:52.957Z,12.71
2018-09-25T06:59:27.189Z,12.76
2018-09-25T07:02:01.182Z,12.70
2018-09-25T07:04:35.061Z,12.48
2018-09-25T07:07:09.437Z,12.30
2018-09-25T07:09:43.377Z,12.50
2018-09-25T07:12:17.272Z,12.44
2018-09-25T07:14:51.474Z,12.54
2018-09-25T07:17:25.337Z,12.55
2018-09-25T07:19:59.624Z,12.54
2018-09-25T07:22:33.692Z,12.46
2018-09-25T07:25:07.865Z,12.49
2018-09-25T07:27:42.138Z,12.54
2018-09-25T07:30:16.730Z,12.67
2018-09-25T07:32:50.921Z,12.87
2018-09-25T07:35:24.864Z,12.65
2018-09-25T07:38:00.049Z,12.90
2018-09-25T07:40:33.969Z,13.06
2018-09-25T07:43:08.145Z,13.30
2018-09-25T07:45:42.043Z,13.41
2018-09-25T07:48:15.982Z,13.23
2018-09-25T07:50:50.911Z,13.28
2018-09-25T07:53:24.793Z,13.57
2018-09-25T07:55:58.634Z,13.75
2018-09-25T07:58:32.858Z,13.86
2018-09-25T08:01:06.723Z,14.13
2018-09-25T08:03:40.850Z,14.16
2018-09-25T08:06:14.818Z,14.57
2018-09-25T08:08:49.020Z,14.84
2018-09-25T08:11:22.956Z,14.88
2018-09-25T08:13:58.165Z,15.01
2018-09-25T08:16:32.064Z,15.07
2018-09-25T08:19:06.355Z,15.04
2018-09-25T08:21:40.284Z,15.45
2018-09-25T08:24:14.533Z,15.71
2018-09-25T08:26:48.574Z,15.90
2018-09-25T08:29:22.793Z,16.05
2018-09-25T08:31:56.772Z,15.90
2018-09-25T08:34:30.774Z,16.13
2018-09-25T08:37:04.710Z,16.26
2018-09-25T08:39:38.618Z,16.53
2018-09-25T08:42:13.006Z,16.49
2018-09-25T08:44:46.866Z,16.45
2018-09-25T08:47:20.793Z,16.79
2018-09-25T08:49:54.645Z,17.02
2018-09-25T08:52:28.764Z,17.03
2018-09-25T08:55:04.161Z,17.19
2018-09-25T08:57:41.224Z,17.22
2018-09-25T09:00:15.527Z,17.58
2018-09-25T09:02:49.373Z,17.80
2018-09-25T09:05:23.627Z,17.54
2018-09-25T09:07:57.668Z,17.56
2018-09-25T09:10:31.829Z,17.57
2018-09-25T09:13:05.672Z,18.01
2018-09-25T09:15:39.616Z,17.85
2018-09-25T09:18:14.033Z,17.95
2018-09-25T09:20:48.226Z,18.63
2018-09-25T09:23:22.428Z,18.99
2018-09-25T09:25:56.339Z,19.29
2018-09-25T09:28:30.368Z,19.62
2018-09-25T09:31:04.254Z,19.90
2018-09-25T09:33:38.734Z,20.00
2018-09-25T09:36:12.829Z,20.35
2018-09-25T09:38:47.133Z,20.18
2018-09-25T09:41:21.097Z,20.39
2018-09-25T09:43:55.247Z,20.37
2018-09-25T09:46:29.175Z,19.97
2018-09-25T09:49:03.381Z,19.80
2018-09-25T09:51:37.421Z,20.50
2018-09-25T09:54:11.644Z,19.86
2018-09-25T09:56:45.507Z,19.24
2018-09-25T09:59:19.814Z,19.22
2018-09-25T10:01:53.712Z,18.88
2018-09-25T10:04:27.618Z,18.76
2018-09-25T10:07:02.137Z,18.53
2018-09-25T10:09:36.184Z,17.85
2018-09-25T10:12:10.955Z,17.87
2018-09-25T10:14:45.006Z,18.29
2018-09-25T10:17:18.991Z,18.49
2018-09-25T10:19:53.136Z,18.96
2018-09-25T10:22:27.207Z,19.39
2018-09-25T10:25:01.545Z,20.14
2018-09-25T10:27:35.422Z,20.37
2018-09-25T10:30:10.955Z,20.53
2018-09-25T10:32:44.886Z,19.92
2018-09-25T10:35:19.104Z,20.09
2018-09-25T10:37:53.139Z,20.54
2018-09-25T10:40:27.165Z,20.73
2018-09-25T10:43:01.361Z,20.28
2018-09-25T10:45:35.376Z,20.18
2018-09-25T10:48:11.636Z,20.94
2018-09-25T10:50:45.842Z,21.81
2018-09-25T10:53:19.864Z,22.38
2018-09-25T10:55:53.897Z,22.67
2018-09-25T10:58:27.996Z,22.93
2018-09-25T11:01:01.981Z,23.60
2018-09-25T11:03:36.558Z,24.40
2018-09-25T11:06:11.730Z,24.85
2018-09-25T11:08:46.181Z,25.55
2018-09-25T11:11:20.120Z,24.05
2018-09-25T11:13:54.075Z,24.57
2018-09-25T11:16:28.083Z,24.77
2018-09-25T11:19:02.346Z,23.72
2018-09-25T11:21:36.441Z,24.65
2018-09-25T11:24:11.115Z,24.84
2018-09-25T11:26:45.291Z,24.38
2018-09-25T11:29:19.249Z,25.66
2018-09-25T11:31:53.105Z,26.20
2018-09-25T11:34:27.120Z,26.45
2018-09-25T11:37:01.441Z,25.62
2018-09-25T11:39:35.442Z,25.57
2018-09-25T11:42:12.873Z,26.20
2018-09-25T11:44:47.151Z,25.48
2018-09-25T11:47:21.704Z,24.41
2018-09-25T11:49:55.622Z,25.41
2018-09-25T11:52:30.164Z,26.22
2018-09-25T11:55:04.107Z,26.82
2018-09-25T11:57:39.366Z,27.46
2018-09-25T12:00:13.664Z,27.54
2018-09-25T12:02:47.540Z,27.33
2018-09-25T12:05:21.488Z,27.36
2018-09-25T12:07:55.391Z,27.47
2018-09-25T12:10:29.795Z,28.13
2018-09-25T12:13:03.819Z,28.35
2018-09-25T12:15:38.001Z,29.33
2018-09-25T12:18:11.913Z,29.68
2018-09-25T12:20:47.077Z,27.83
2018-09-25T12:23:20.989Z,29.21
2018-09-25T12:25:55.112Z,29.68
2018-09-25T12:28:29.418Z,28.70
2018-09-25T12:31:03.455Z,28.52
2018-09-25T12:33:37.720Z,28.17
2018-09-25T12:36:11.667Z,27.95
2018-09-25T12:38:45.537Z,27.74
2018-09-25T12:41:19.924Z,28.68
2018-09-25T12:43:53.776Z,29.04
2018-09-25T12:46:27.678Z,29.01
2018-09-25T12:49:01.717Z,28.48
2018-09-25T12:51:36.049Z,28.73
2018-09-25T12:54:11.082Z,27.97
2018-09-25T12:56:45.485Z,27.38
2018-09-25T12:59:19.461Z,28.47
2018-09-25T13:01:53.626Z,29.32
2018-09-25T13:04:27.566Z,29.80
2018-09-25T13:07:01.889Z,28.89
2018-09-25T13:09:35.860Z,29.53
2018-09-25T13:12:11.511Z,28.89
2018-09-25T13:14:45.509Z,29.89
2018-09-25T13:17:19.859Z,29.95
2018-09-25T13:19:53.959Z,30.11
2018-09-25T13:22:27.828Z,29.15
2018-09-25T13:25:02.463Z,28.85
2018-09-25T13:27:36.407Z,29.05
2018-09-25T13:30:11.329Z,28.03
2018-09-25T13:32:45.185Z,26.88
2018-09-25T13:35:19.360Z,27.66
2018-09-25T13:37:53.177Z,27.82
2018-09-25T13:40:28.385Z,27.26
2018-09-25T13:43:02.293Z,28.18
2018-09-25T13:45:36.243Z,28.06
2018-09-25T13:48:11.286Z,28.66
2018-09-25T13:50:45.474Z,28.03
2018-09-25T13:53:19.411Z,27.94
2018-09-25T13:55:53.362Z,27.87
2018-09-25T13:58:27.277Z,28.26
2018-09-25T14:01:01.320Z,28.56
2018-09-25T14:03:35.677Z,28.39
2018-09-25T14:06:10.441Z,27.22
2018-09-25T14:08:44.808Z,27.50
2018-09-25T14:11:18.841Z,27.28
2018-09-25T14:13:52.867Z,26.34
2018-09-25T14:16:34.573Z,27.01
2018-09-25T14:19:08.757Z,27.60
2018-09-25T14:21:42.652Z,28.23
2018-09-25T14:24:16.807Z,27.88
2018-09-25T14:26:50.652Z,26.85
2018-09-25T14:29:24.877Z,26.93
2018-09-25T14:31:58.750Z,26.85
2018-09-25T14:34:33.436Z,26.65
2018-09-25T14:37:08.176Z,26.21
2018-09-25T14:39:42.397Z,26.21
2018-09-25T14:42:16.345Z,25.93
2018-09-25T14:44:50.253Z,26.01
2018-09-25T14:47:24.123Z,25.24
2018-09-25T14:49:58.291Z,25.50
2018-09-25T14:52:32.141Z,24.60
2018-09-25T14:55:06.372Z,25.23
2018-09-25T14:57:40.286Z,25.96
2018-09-25T15:00:14.279Z,25.91
2018-09-25T15:02:48.597Z,25.81
2018-09-25T15:05:22.505Z,26.11
2018-09-25T15:07:56.640Z,25.30
2018-09-25T15:10:30.523Z,25.17
2018-09-25T15:13:05.016Z,24.87
2018-09-25T15:15:38.916Z,24.47
2018-09-25T15:18:12.859Z,24.70
2018-09-25T15:20:46.983Z,25.35
2018-09-25T15:23:21.549Z,25.46
2018-09-25T15:25:55.479Z,24.85
2018-09-25T15:28:29.565Z,24.27
2018-09-25T15:31:03.894Z,24.43
2018-09-25T15:33:38.072Z,24.27
2018-09-25T15:36:12.326Z,24.29
2018-09-25T15:39:49.124Z,24.03
2018-09-25T15:42:23.894Z,24.39
2018-09-25T15:44:57.966Z,24.16
2018-09-25T15:47:31.873Z,24.03
2018-09-25T15:50:06.238Z,24.37
2018-09-25T15:52:40.126Z,23.74
2018-09-25T15:55:14.322Z,23.28
2018-09-25T15:57:48.211Z,23.34
2018-09-25T16:00:22.726Z,23.69
2018-09-25T16:02:56.627Z,22.98
2018-09-25T16:05:30.529Z,22.88
2018-09-25T16:08:04.452Z,22.90
2018-09-25T16:10:38.269Z,22.78
2018-09-25T16:13:12.503Z,22.09
2018-09-25T16:15:46.449Z,22.01
2018-09-25T16:18:20.304Z,22.00
2018-09-25T16:20:54.189Z,21.81
2018-09-25T16:23:28.412Z,21.33
2018-09-25T16:26:03.742Z,21.09
2018-09-25T16:28:38.128Z,21.38
2018-09-25T16:31:12.150Z,20.35
2018-09-25T16:33:46.296Z,20.34
2018-09-25T16:36:20.455Z,19.90
2018-09-25T16:38:55.408Z,19.65
2018-09-25T16:41:29.827Z,19.75
2018-09-25T16:44:03.965Z,19.65
2018-09-25T16:46:38.370Z,19.17
2018-09-25T16:49:12.568Z,18.98
2018-09-25T16:51:46.851Z,19.17
2018-09-25T16:54:20.826Z,19.02
2018-09-25T16:56:54.914Z,18.73
2018-09-25T16:59:28.794Z,18.77
2018-09-25T17:02:03.635Z,18.66
2018-09-25T17:04:37.535Z,18.60
2018-09-25T17:07:11.407Z,18.56
2018-09-25T17:09:45.556Z,18.53
2018-09-25T17:12:19.437Z,18.48
2018-09-25T17:14:53.282Z,18.29
2018-09-25T17:17:27.524Z,18.03
2018-09-25T17:20:01.468Z,18.04
2018-09-25T17:22:35.599Z,18.21
2018-09-25T17:25:09.983Z,18.20
2018-09-25T17:27:44.022Z,18.04
2018-09-25T17:30:17.996Z,18.14
2018-09-25T17:32:51.863Z,18.02
2018-09-25T17:35:26.241Z,17.91
2018-09-25T17:38:00.447Z,17.88
2018-09-25T17:40:34.363Z,17.81
2018-09-25T17:43:08.775Z,17.94
2018-09-25T17:45:42.581Z,18.00
2018-09-25T17:48:17.383Z,17.75
2018-09-25T17:50:51.241Z,17.90
2018-09-25T17:53:25.788Z,18.01
2018-09-25T17:55:59.941Z,17.80
2018-09-25T17:58:33.938Z,17.74
2018-09-25T18:01:08.138Z,17.89
2018-09-25T18:03:42.394Z,17.83
2018-09-25T18:06:16.973Z,17.77
2018-09-25T18:08:51.187Z,17.60
2018-09-25T18:11:25.298Z,17.30
2018-09-25T18:13:59.986Z,17.18
2018-09-25T18:16:34.209Z,17.13
2018-09-25T18:19:09.465Z,17.16
2018-09-25T18:21:43.795Z,16.96
2018-09-25T18:24:18.538Z,17.09
2018-09-25T18:26:52.916Z,17.29
2018-09-25T18:29:27.685Z,16.99
2018-09-25T18:32:02.863Z,17.10
2018-09-25T18:34:37.041Z,17.26
2018-09-25T18:37:11.870Z,17.02
2018-09-25T18:39:46.248Z,17.04
2018-09-25T18:42:21.292Z,16.86
2018-09-25T18:44:55.937Z,16.78
2018-09-25T18:47:30.244Z,16.86
2018-09-25T18:50:05.240Z,16.67
2018-09-25T18:52:39.962Z,16.61
2018-09-25T18:55:14.208Z,16.49
2018-09-25T18:57:48.708Z,16.56
2018-09-25T19:00:22.937Z,16.69
2018-09-25T19:02:57.270Z,16.73
2018-09-25T19:05:32.668Z,16.68
2018-09-25T19:08:07.572Z,16.64
2018-09-25T19:10:42.719Z,16.61
2018-09-25T19:13:17.361Z,16.76
2018-09-25T19:15:53.419Z,16.90
2018-09-25T19:18:28.649Z,16.86
2018-09-25T19:21:03.249Z,16.69
2018-09-25T19:23:38.193Z,16.67
2018-09-25T19:26:13.859Z,16.64
2018-09-25T19:28:48.363Z,16.16
2018-09-25T19:31:23.136Z,16.06
2018-09-25T19:33:57.757Z,16.00
2018-09-25T19:36:32.214Z,16.33
2018-09-25T19:39:07.453Z,16.33
2018-09-25T19:41:41.865Z,16.37
2018-09-25T19:44:16.548Z,16.05
2018-09-25T19:46:50.894Z,16.30
2018-09-25T19:49:25.374Z,16.38
2018-09-25T19:51:59.782Z,16.30
2018-09-25T19:54:34.525Z,16.39
2018-09-25T19:57:08.789Z,16.10
2018-09-25T19:59:43.948Z,16.04
2018-09-25T20:02:18.399Z,16.02
2018-09-25T20:04:53.496Z,15.96
2018-09-25T20:07:27.668Z,16.04
2018-09-25T20:10:03.079Z,15.88
2018-09-25T20:12:37.556Z,15.82
2018-09-25T20:15:12.120Z,15.95
2018-09-25T20:17:46.475Z,16.06
2018-09-25T20:20:21.098Z,16.03
2018-09-25T20:22:55.540Z,15.98
2018-09-25T20:25:30.166Z,16.08
2018-09-25T20:28:04.550Z,16.08
2018-09-25T20:30:39.295Z,15.97
2018-09-25T20:33:14.294Z,15.92
2018-09-25T20:35:49.004Z,16.04
2018-09-25T20:38:23.918Z,15.94
2018-09-25T20:40:58.641Z,16.02
2018-09-25T20:43:33.081Z,15.91
2018-09-25T20:46:11.524Z,15.74
2018-09-25T20:48:45.731Z,15.62
2018-09-25T20:51:21.801Z,15.64
2018-09-25T20:53:56.347Z,15.64
2018-09-25T20:56:31.368Z,15.74
2018-09-25T20:59:06.149Z,15.65
2018-09-25T21:01:41.099Z,15.78
2018-09-25T21:04:15.892Z,15.76
2018-09-25T21:06:51.711Z,15.78
2018-09-25T21:09:25.974Z,15.37
2018-09-25T21:12:00.705Z,15.38
2018-09-25T21:14:34.905Z,15.44
2018-09-25T21:17:09.672Z,15.36
2018-09-25T21:19:43.985Z,15.44
2018-09-25T21:22:18.259Z,15.19
2018-09-25T21:24:52.180Z,15.22
2018-09-25T21:27:26.135Z,15.34
2018-09-25T21:30:00.007Z,15.35
2018-09-25T21:32:34.397Z,15.28
2018-09-25T21:35:08.425Z,15.29
2018-09-25T21:37:42.752Z,15.29
2018-09-25T21:40:17.204Z,15.30
2018-09-25T21:42:51.092Z,15.31
2018-09-25T21:45:25.756Z,15.37
2018-09-25T21:47:59.772Z,15.36
2018-09-25T21:53:14.619Z,15.28
2018-09-25T21:55:49.720Z,15.25
2018-09-25T21:58:23.951Z,15.20
2018-09-25T22:00:59.498Z,15.25
2018-09-25T22:03:33.541Z,15.26
2018-09-25T22:06:07.748Z,15.15
2018-09-25T22:08:41.622Z,15.17
2018-09-25T22:11:15.869Z,15.09
2018-09-25T22:13:49.756Z,15.09
2018-09-25T22:16:24.725Z,15.12
2018-09-25T22:18:58.939Z,15.14
2018-09-25T22:21:32.874Z,15.07
2018-09-25T22:24:07.125Z,15.01
2018-09-25T22:26:40.998Z,14.96
2018-09-25T22:29:14.863Z,14.90
2018-09-25T22:31:49.098Z,14.89
2018-09-25T22:34:23.551Z,14.90
2018-09-25T22:36:57.447Z,14.74
2018-09-25T22:39:31.424Z,14.76
2018-09-25T22:42:05.348Z,14.75
2018-09-25T22:44:39.670Z,14.67
2018-09-25T22:47:13.609Z,14.76
2018-09-25T22:49:47.624Z,14.78
2018-09-25T22:52:21.565Z,14.77
2018-09-25T22:54:55.733Z,14.71
2018-09-25T22:57:29.601Z,14.74
2018-09-25T23:00:03.970Z,14.71
2018-09-25T23:02:38.036Z,14.73
2018-09-25T23:05:12.367Z,14.75
2018-09-25T23:07:46.256Z,14.73
2018-09-25T23:10:20.480Z,14.68
2018-09-25T23:12:54.399Z,14.62
2018-09-25T23:15:28.452Z,14.60
2018-09-25T23:18:03.216Z,14.56
2018-09-25T23:20:37.525Z,14.61
2018-09-25T23:23:11.596Z,14.59
2018-09-25T23:25:45.592Z,14.59
2018-09-25T23:28:22.503Z,14.55
2018-09-25T23:30:58.469Z,14.51
2018-09-25T23:33:33.331Z,14.39
2018-09-25T23:36:07.391Z,14.34
2018-09-25T23:38:41.433Z,14.31
2018-09-25T23:43:21.363Z,14.22
2018-09-25T23:45:55.639Z,14.15
2018-09-25T23:48:29.582Z,13.92
2018-09-25T23:51:20.484Z,13.89
2018-09-25T23:53:54.457Z,13.96
2018-09-25T23:56:43.902Z,14.01
2018-09-25T23:59:17.740Z,14.07
